sensor_id;sensor_type;location;lat;lon;timestamp;pressure;altitude;pressure_sealevel;temperature;humidity
27210;BME280;14721;42.668;23.386;2023-05-25T00:01:42;95197.53;;;17.03;81.88
27210;BME280;14721;42.668;23.386;2023-05-25T00:04:08;95202.22;;;17.01;82.10
27210;BME280;14721;42.668;23.386;2023-05-25T00:06:35;95208.09;;;16.97;82.94
27210;BME280;14721;42.668;23.386;2023-05-25T00:09:07;95204.47;;;16.88;82.95
27210;BME280;14721;42.668;23.386;2023-05-25T00:11:33;95206.31;;;16.87;83.09
27210;BME280;14721;42.668;23.386;2023-05-25T00:14:00;95197.53;;;16.85;83.34
27210;BME280;14721;42.668;23.386;2023-05-25T00:16:25;95211.88;;;16.86;83.72
27210;BME280;14721;42.668;23.386;2023-05-25T00:18:51;95205.56;;;16.77;84.54
27210;BME280;14721;42.668;23.386;2023-05-25T00:21:17;95202.69;;;16.79;84.47
27210;BME280;14721;42.668;23.386;2023-05-25T00:23:44;95213.94;;;16.74;85.09
27210;BME280;14721;42.668;23.386;2023-05-25T00:26:10;95216.72;;;16.65;85.52
27210;BME280;14721;42.668;23.386;2023-05-25T00:28:36;95216.78;;;16.55;86.18
27210;BME280;14721;42.668;23.386;2023-05-25T00:31:02;95213.78;;;16.58;86.32
27210;BME280;14721;42.668;23.386;2023-05-25T00:33:28;95210.75;;;16.44;86.53
27210;BME280;14721;42.668;23.386;2023-05-25T00:35:53;95207.94;;;16.36;86.90
27210;BME280;14721;42.668;23.386;2023-05-25T00:38:21;95201.22;;;16.22;87.20
27210;BME280;14721;42.668;23.386;2023-05-25T00:40:47;95208.47;;;16.12;88.33
27210;BME280;14721;42.668;23.386;2023-05-25T00:43:12;95215.91;;;16.10;88.49
27210;BME280;14721;42.668;23.386;2023-05-25T00:45:38;95216.34;;;16.06;88.92
27210;BME280;14721;42.668;23.386;2023-05-25T00:48:08;95223.38;;;16.16;89.17
27210;BME280;14721;42.668;23.386;2023-05-25T00:50:40;95216.13;;;16.17;89.13
27210;BME280;14721;42.668;23.386;2023-05-25T00:53:07;95220.56;;;16.08;89.25
27210;BME280;14721;42.668;23.386;2023-05-25T00:55:47;95220.91;;;15.96;89.90
27210;BME280;14721;42.668;23.386;2023-05-25T00:58:20;95219.78;;;15.98;89.87
27210;BME280;14721;42.668;23.386;2023-05-25T01:00:51;95220.31;;;16.02;90.02
27210;BME280;14721;42.668;23.386;2023-05-25T01:03:21;95227.16;;;15.96;89.31
27210;BME280;14721;42.668;23.386;2023-05-25T01:05:54;95221.06;;;15.94;88.55
27210;BME280;14721;42.668;23.386;2023-05-25T01:08:22;95230.84;;;15.95;88.58
27210;BME280;14721;42.668;23.386;2023-05-25T01:10:50;95218.94;;;15.88;87.78
27210;BME280;14721;42.668;23.386;2023-05-25T01:13:18;95237.78;;;15.98;89.04
27210;BME280;14721;42.668;23.386;2023-05-25T01:15:48;95230.72;;;15.97;88.65
27210;BME280;14721;42.668;23.386;2023-05-25T01:18:16;95235.09;;;15.98;87.79
27210;BME280;14721;42.668;23.386;2023-05-25T01:20:58;95229.56;;;15.99;88.01
27210;BME280;14721;42.668;23.386;2023-05-25T01:23:32;95225.69;;;16.02;87.23
27210;BME280;14721;42.668;23.386;2023-05-25T01:26:02;95220.97;;;15.86;87.98
27210;BME280;14721;42.668;23.386;2023-05-25T01:28:37;95221.19;;;15.93;87.61
27210;BME280;14721;42.668;23.386;2023-05-25T01:31:06;95216.53;;;15.95;87.28
27210;BME280;14721;42.668;23.386;2023-05-25T01:33:35;95212.16;;;15.84;87.66
27210;BME280;14721;42.668;23.386;2023-05-25T01:36:02;95213.84;;;15.85;88.28
27210;BME280;14721;42.668;23.386;2023-05-25T01:38:28;95212.63;;;15.80;88.83
27210;BME280;14721;42.668;23.386;2023-05-25T01:40:53;95217.56;;;15.84;88.96
27210;BME280;14721;42.668;23.386;2023-05-25T01:43:21;95208.91;;;15.81;89.02
27210;BME280;14721;42.668;23.386;2023-05-25T01:45:47;95206.56;;;15.68;89.60
27210;BME280;14721;42.668;23.386;2023-05-25T01:48:36;95210.69;;;15.63;90.48
27210;BME280;14721;42.668;23.386;2023-05-25T01:51:38;95209.13;;;15.60;90.53
27210;BME280;14721;42.668;23.386;2023-05-25T01:54:17;95212.41;;;15.54;90.46
27210;BME280;14721;42.668;23.386;2023-05-25T01:56:45;95221.09;;;15.29;91.92
27210;BME280;14721;42.668;23.386;2023-05-25T01:59:15;95199.19;;;14.95;93.46
27210;BME280;14721;42.668;23.386;2023-05-25T02:01:43;95218.44;;;15.00;94.32
27210;BME280;14721;42.668;23.386;2023-05-25T02:04:10;95215.47;;;15.03;95.23
27210;BME280;14721;42.668;23.386;2023-05-25T02:06:36;95219.69;;;15.16;94.38
27210;BME280;14721;42.668;23.386;2023-05-25T02:09:02;95224.66;;;15.10;94.41
27210;BME280;14721;42.668;23.386;2023-05-25T02:11:28;95218.72;;;15.07;94.12
27210;BME280;14721;42.668;23.386;2023-05-25T02:13:54;95219.28;;;15.10;93.55
27210;BME280;14721;42.668;23.386;2023-05-25T02:16:20;95225.38;;;15.13;92.04
27210;BME280;14721;42.668;23.386;2023-05-25T02:18:46;95227.91;;;15.14;91.99
27210;BME280;14721;42.668;23.386;2023-05-25T02:21:11;95223.09;;;15.18;92.14
27210;BME280;14721;42.668;23.386;2023-05-25T02:23:37;95230.47;;;15.16;92.67
27210;BME280;14721;42.668;23.386;2023-05-25T02:26:02;95216.75;;;14.99;93.53
27210;BME280;14721;42.668;23.386;2023-05-25T02:28:28;95229.06;;;15.02;93.28
27210;BME280;14721;42.668;23.386;2023-05-25T02:30:53;95240.41;;;15.05;93.12
27210;BME280;14721;42.668;23.386;2023-05-25T02:33:19;95238.56;;;14.96;91.51
27210;BME280;14721;42.668;23.386;2023-05-25T02:35:45;95244.50;;;14.90;91.65
27210;BME280;14721;42.668;23.386;2023-05-25T02:38:11;95251.25;;;14.56;92.06
27210;BME280;14721;42.668;23.386;2023-05-25T02:40:37;95248.97;;;14.52;92.65
27210;BME280;14721;42.668;23.386;2023-05-25T02:43:02;95254.09;;;14.55;93.16
27210;BME280;14721;42.668;23.386;2023-05-25T02:45:28;95250.72;;;14.53;92.77
27210;BME280;14721;42.668;23.386;2023-05-25T02:47:54;95263.44;;;14.60;92.80
27210;BME280;14721;42.668;23.386;2023-05-25T02:50:19;95265.72;;;14.65;92.04
27210;BME280;14721;42.668;23.386;2023-05-25T02:52:45;95270.09;;;14.66;91.14
27210;BME280;14721;42.668;23.386;2023-05-25T02:55:11;95273.78;;;14.65;90.94
27210;BME280;14721;42.668;23.386;2023-05-25T02:57:43;95276.19;;;14.77;90.74
27210;BME280;14721;42.668;23.386;2023-05-25T03:00:12;95279.16;;;14.74;90.65
27210;BME280;14721;42.668;23.386;2023-05-25T03:02:38;95269.13;;;14.76;90.59
27210;BME280;14721;42.668;23.386;2023-05-25T03:05:04;95270.53;;;14.61;90.66
27210;BME280;14721;42.668;23.386;2023-05-25T03:07:30;95272.91;;;14.45;91.50
27210;BME280;14721;42.668;23.386;2023-05-25T03:09:56;95272.31;;;14.42;92.74
27210;BME280;14721;42.668;23.386;2023-05-25T03:12:22;95276.63;;;14.63;91.62
27210;BME280;14721;42.668;23.386;2023-05-25T03:14:47;95279.75;;;14.78;91.15
27210;BME280;14721;42.668;23.386;2023-05-25T03:17:13;95282.88;;;15.02;90.86
27210;BME280;14721;42.668;23.386;2023-05-25T03:19:40;95279.16;;;15.32;89.88
27210;BME280;14721;42.668;23.386;2023-05-25T03:22:05;95289.38;;;15.57;88.29
27210;BME280;14721;42.668;23.386;2023-05-25T03:24:31;95271.31;;;15.76;86.88
27210;BME280;14721;42.668;23.386;2023-05-25T03:26:57;95281.06;;;15.87;85.09
27210;BME280;14721;42.668;23.386;2023-05-25T03:29:22;95276.41;;;15.89;84.36
27210;BME280;14721;42.668;23.386;2023-05-25T03:31:48;95275.81;;;15.95;83.84
27210;BME280;14721;42.668;23.386;2023-05-25T03:34:13;95286.50;;;15.77;83.37
27210;BME280;14721;42.668;23.386;2023-05-25T03:36:39;95283.97;;;15.57;83.60
27210;BME280;14721;42.668;23.386;2023-05-25T03:39:10;95290.75;;;15.70;84.53
27210;BME280;14721;42.668;23.386;2023-05-25T03:41:36;95280.94;;;16.25;83.02
27210;BME280;14721;42.668;23.386;2023-05-25T03:44:02;95281.13;;;16.41;80.94
27210;BME280;14721;42.668;23.386;2023-05-25T03:46:27;95268.66;;;16.49;80.35
27210;BME280;14721;42.668;23.386;2023-05-25T03:48:53;95277.78;;;16.83;78.48
27210;BME280;14721;42.668;23.386;2023-05-25T03:51:18;95282.69;;;17.50;75.86
27210;BME280;14721;42.668;23.386;2023-05-25T03:53:44;95286.34;;;18.43;71.81
27210;BME280;14721;42.668;23.386;2023-05-25T03:56:10;95287.56;;;18.91;68.51
27210;BME280;14721;42.668;23.386;2023-05-25T03:58:36;95285.16;;;18.72;67.70
27210;BME280;14721;42.668;23.386;2023-05-25T04:01:02;95295.00;;;18.47;68.28
27210;BME280;14721;42.668;23.386;2023-05-25T04:03:31;95300.00;;;18.67;68.48
27210;BME280;14721;42.668;23.386;2023-05-25T04:05:57;95306.50;;;19.48;66.43
27210;BME280;14721;42.668;23.386;2023-05-25T04:08:24;95308.03;;;20.23;63.58
27210;BME280;14721;42.668;23.386;2023-05-25T04:10:50;95305.03;;;20.65;61.30
27210;BME280;14721;42.668;23.386;2023-05-25T04:13:19;95305.22;;;20.55;60.03
27210;BME280;14721;42.668;23.386;2023-05-25T04:15:44;95306.53;;;20.12;62.13
27210;BME280;14721;42.668;23.386;2023-05-25T04:18:10;95303.81;;;20.12;62.57
27210;BME280;14721;42.668;23.386;2023-05-25T04:20:36;95314.91;;;20.49;61.56
27210;BME280;14721;42.668;23.386;2023-05-25T04:23:02;95317.00;;;20.86;60.40
27210;BME280;14721;42.668;23.386;2023-05-25T04:25:27;95319.91;;;21.23;58.63
27210;BME280;14721;42.668;23.386;2023-05-25T04:27:53;95320.09;;;21.22;58.90
27210;BME280;14721;42.668;23.386;2023-05-25T04:30:21;95322.47;;;22.00;56.44
27210;BME280;14721;42.668;23.386;2023-05-25T04:32:47;95317.13;;;22.44;54.50
27210;BME280;14721;42.668;23.386;2023-05-25T04:35:12;95323.16;;;22.69;53.83
27210;BME280;14721;42.668;23.386;2023-05-25T04:37:39;95328.03;;;23.46;52.11
27210;BME280;14721;42.668;23.386;2023-05-25T04:40:07;95325.63;;;23.57;50.56
27210;BME280;14721;42.668;23.386;2023-05-25T04:42:39;95331.34;;;22.98;52.02
27210;BME280;14721;42.668;23.386;2023-05-25T04:45:06;95336.44;;;22.35;54.16
27210;BME280;14721;42.668;23.386;2023-05-25T04:47:34;95336.19;;;21.84;55.85
27210;BME280;14721;42.668;23.386;2023-05-25T04:50:02;95330.09;;;21.82;56.25
27210;BME280;14721;42.668;23.386;2023-05-25T04:52:28;95323.94;;;22.25;55.77
27210;BME280;14721;42.668;23.386;2023-05-25T04:54:54;95306.03;;;22.46;54.54
27210;BME280;14721;42.668;23.386;2023-05-25T04:57:19;95316.94;;;22.46;53.94
27210;BME280;14721;42.668;23.386;2023-05-25T04:59:45;95321.72;;;22.06;56.07
27210;BME280;14721;42.668;23.386;2023-05-25T05:02:11;95306.47;;;22.86;54.55
27210;BME280;14721;42.668;23.386;2023-05-25T05:04:36;95316.56;;;23.71;52.72
27210;BME280;14721;42.668;23.386;2023-05-25T05:07:02;95303.06;;;24.54;50.70
27210;BME280;14721;42.668;23.386;2023-05-25T05:09:28;95303.41;;;25.06;48.10
27210;BME280;14721;42.668;23.386;2023-05-25T05:11:54;95299.31;;;25.83;47.02
27210;BME280;14721;42.668;23.386;2023-05-25T05:14:19;95301.94;;;26.57;44.54
27210;BME280;14721;42.668;23.386;2023-05-25T05:16:45;95303.38;;;26.14;45.10
27210;BME280;14721;42.668;23.386;2023-05-25T05:19:12;95303.84;;;26.24;45.73
27210;BME280;14721;42.668;23.386;2023-05-25T05:21:37;95297.53;;;26.30;45.31
27210;BME280;14721;42.668;23.386;2023-05-25T05:24:03;95312.81;;;27.35;42.82
27210;BME280;14721;42.668;23.386;2023-05-25T05:26:29;95305.44;;;27.22;42.28
27210;BME280;14721;42.668;23.386;2023-05-25T05:28:54;95319.66;;;26.80;43.14
27210;BME280;14721;42.668;23.386;2023-05-25T05:31:21;95324.47;;;26.98;42.48
27210;BME280;14721;42.668;23.386;2023-05-25T05:33:48;95318.59;;;26.55;43.08
27210;BME280;14721;42.668;23.386;2023-05-25T05:36:14;95328.69;;;26.16;44.32
27210;BME280;14721;42.668;23.386;2023-05-25T05:38:39;95325.53;;;26.90;42.98
27210;BME280;14721;42.668;23.386;2023-05-25T05:41:06;95323.34;;;27.38;41.54
27210;BME280;14721;42.668;23.386;2023-05-25T05:43:38;95330.72;;;27.44;41.96
27210;BME280;14721;42.668;23.386;2023-05-25T05:46:06;95335.66;;;27.86;40.93
27210;BME280;14721;42.668;23.386;2023-05-25T05:48:32;95337.31;;;28.25;40.22
27210;BME280;14721;42.668;23.386;2023-05-25T05:51:02;95334.66;;;28.67;39.23
27210;BME280;14721;42.668;23.386;2023-05-25T05:53:28;95345.44;;;28.69;38.88
27210;BME280;14721;42.668;23.386;2023-05-25T05:55:53;95331.88;;;28.74;39.20
27210;BME280;14721;42.668;23.386;2023-05-25T05:58:26;95334.34;;;28.82;38.67
27210;BME280;14721;42.668;23.386;2023-05-25T06:00:53;95335.03;;;28.77;38.82
27210;BME280;14721;42.668;23.386;2023-05-25T06:03:19;95334.66;;;28.67;39.37
27210;BME280;14721;42.668;23.386;2023-05-25T06:05:45;95341.06;;;28.61;39.98
27210;BME280;14721;42.668;23.386;2023-05-25T06:08:11;95330.78;;;28.99;39.50
27210;BME280;14721;42.668;23.386;2023-05-25T06:10:38;95326.59;;;28.97;39.56
27210;BME280;14721;42.668;23.386;2023-05-25T06:13:04;95332.66;;;28.56;40.47
27210;BME280;14721;42.668;23.386;2023-05-25T06:15:32;95329.41;;;28.90;40.08
27210;BME280;14721;42.668;23.386;2023-05-25T06:17:59;95331.09;;;29.34;38.89
27210;BME280;14721;42.668;23.386;2023-05-25T06:20:24;95318.31;;;29.40;38.78
27210;BME280;14721;42.668;23.386;2023-05-25T06:22:50;95330.47;;;29.50;38.02
27210;BME280;14721;42.668;23.386;2023-05-25T06:25:16;95335.88;;;29.81;37.43
27210;BME280;14721;42.668;23.386;2023-05-25T06:27:41;95326.66;;;29.15;37.82
27210;BME280;14721;42.668;23.386;2023-05-25T06:30:07;95332.16;;;28.90;38.88
27210;BME280;14721;42.668;23.386;2023-05-25T06:32:33;95325.78;;;28.90;38.42
27210;BME280;14721;42.668;23.386;2023-05-25T06:34:59;95333.63;;;29.54;38.13
27210;BME280;14721;42.668;23.386;2023-05-25T06:37:26;95332.44;;;29.68;37.01
27210;BME280;14721;42.668;23.386;2023-05-25T06:39:51;95337.69;;;29.51;37.19
27210;BME280;14721;42.668;23.386;2023-05-25T06:42:17;95334.78;;;29.82;37.68
27210;BME280;14721;42.668;23.386;2023-05-25T06:44:42;95334.56;;;29.66;37.70
27210;BME280;14721;42.668;23.386;2023-05-25T06:47:08;95343.56;;;29.91;36.57
27210;BME280;14721;42.668;23.386;2023-05-25T06:49:34;95336.59;;;30.06;36.75
27210;BME280;14721;42.668;23.386;2023-05-25T06:51:59;95331.34;;;30.16;36.51
27210;BME280;14721;42.668;23.386;2023-05-25T06:54:25;95340.19;;;30.25;36.81
27210;BME280;14721;42.668;23.386;2023-05-25T06:56:51;95336.19;;;30.50;35.73
27210;BME280;14721;42.668;23.386;2023-05-25T06:59:17;95345.16;;;30.46;35.93
27210;BME280;14721;42.668;23.386;2023-05-25T07:01:45;95339.97;;;30.38;36.29
27210;BME280;14721;42.668;23.386;2023-05-25T07:04:10;95332.72;;;30.55;35.32
27210;BME280;14721;42.668;23.386;2023-05-25T07:06:36;95334.88;;;30.53;36.00
27210;BME280;14721;42.668;23.386;2023-05-25T07:09:02;95323.38;;;30.67;35.18
27210;BME280;14721;42.668;23.386;2023-05-25T07:11:27;95331.41;;;30.57;36.16
27210;BME280;14721;42.668;23.386;2023-05-25T07:13:53;95330.53;;;30.45;36.39
27210;BME280;14721;42.668;23.386;2023-05-25T07:16:18;95326.22;;;30.49;36.54
27210;BME280;14721;42.668;23.386;2023-05-25T07:18:44;95323.09;;;29.69;36.57
27210;BME280;14721;42.668;23.386;2023-05-25T07:21:10;95324.84;;;28.78;38.36
27210;BME280;14721;42.668;23.386;2023-05-25T07:23:36;95330.75;;;28.26;39.86
27210;BME280;14721;42.668;23.386;2023-05-25T07:26:02;95324.56;;;28.06;41.26
27210;BME280;14721;42.668;23.386;2023-05-25T07:28:28;95329.03;;;28.62;39.58
27210;BME280;14721;42.668;23.386;2023-05-25T07:30:53;95331.38;;;28.83;39.85
27210;BME280;14721;42.668;23.386;2023-05-25T07:33:19;95334.31;;;27.95;40.95
27210;BME280;14721;42.668;23.386;2023-05-25T07:35:44;95331.84;;;27.17;42.58
27210;BME280;14721;42.668;23.386;2023-05-25T07:38:10;95337.13;;;26.21;44.85
27210;BME280;14721;42.668;23.386;2023-05-25T07:40:35;95345.34;;;25.60;46.30
27210;BME280;14721;42.668;23.386;2023-05-25T07:43:01;95348.44;;;25.10;47.65
27210;BME280;14721;42.668;23.386;2023-05-25T07:45:27;95338.44;;;24.41;49.68
27210;BME280;14721;42.668;23.386;2023-05-25T07:47:52;95350.53;;;24.05;50.92
27210;BME280;14721;42.668;23.386;2023-05-25T07:50:18;95331.03;;;23.72;52.24
27210;BME280;14721;42.668;23.386;2023-05-25T07:52:44;95357.50;;;23.57;53.30
27210;BME280;14721;42.668;23.386;2023-05-25T07:55:10;95353.44;;;23.03;55.23
27210;BME280;14721;42.668;23.386;2023-05-25T07:57:36;95363.47;;;22.73;57.16
27210;BME280;14721;42.668;23.386;2023-05-25T08:00:02;95368.47;;;22.47;58.61
27210;BME280;14721;42.668;23.386;2023-05-25T08:02:30;95370.44;;;22.16;59.78
27210;BME280;14721;42.668;23.386;2023-05-25T08:04:56;95373.78;;;21.81;61.74
27210;BME280;14721;42.668;23.386;2023-05-25T08:07:23;95376.47;;;21.58;62.73
27210;BME280;14721;42.668;23.386;2023-05-25T08:09:49;95379.19;;;21.20;64.24
27210;BME280;14721;42.668;23.386;2023-05-25T08:12:15;95381.50;;;20.92;65.24
27210;BME280;14721;42.668;23.386;2023-05-25T08:14:40;95387.47;;;20.80;65.55
27210;BME280;14721;42.668;23.386;2023-05-25T08:17:06;95390.78;;;20.35;66.96
27210;BME280;14721;42.668;23.386;2023-05-25T08:19:32;95387.88;;;20.28;67.87
27210;BME280;14721;42.668;23.386;2023-05-25T08:21:58;95392.84;;;20.25;68.44
27210;BME280;14721;42.668;23.386;2023-05-25T08:24:24;95392.28;;;20.05;69.34
27210;BME280;14721;42.668;23.386;2023-05-25T08:26:49;95407.34;;;20.00;69.95
27210;BME280;14721;42.668;23.386;2023-05-25T08:29:15;95418.56;;;20.05;70.04
27210;BME280;14721;42.668;23.386;2023-05-25T08:31:41;95413.28;;;19.95;70.25
27210;BME280;14721;42.668;23.386;2023-05-25T08:34:08;95441.25;;;19.88;71.52
27210;BME280;14721;42.668;23.386;2023-05-25T08:36:34;95429.09;;;19.34;74.95
27210;BME280;14721;42.668;23.386;2023-05-25T08:39:01;95402.38;;;19.06;76.74
27210;BME280;14721;42.668;23.386;2023-05-25T08:41:28;95420.78;;;19.02;77.32
27210;BME280;14721;42.668;23.386;2023-05-25T08:43:54;95422.94;;;18.91;79.35
27210;BME280;14721;42.668;23.386;2023-05-25T08:46:29;95420.47;;;18.72;81.52
27210;BME280;14721;42.668;23.386;2023-05-25T08:49:01;95423.38;;;18.52;83.49
27210;BME280;14721;42.668;23.386;2023-05-25T08:51:28;95425.00;;;18.02;86.24
27210;BME280;14721;42.668;23.386;2023-05-25T08:54:00;95425.72;;;17.87;88.26
27210;BME280;14721;42.668;23.386;2023-05-25T08:56:30;95436.69;;;17.68;89.68
27210;BME280;14721;42.668;23.386;2023-05-25T08:59:17;95436.56;;;17.42;91.41
27210;BME280;14721;42.668;23.386;2023-05-25T09:01:51;95441.84;;;17.34;92.95
27210;BME280;14721;42.668;23.386;2023-05-25T09:04:19;95426.22;;;17.11;94.31
27210;BME280;14721;42.668;23.386;2023-05-25T09:06:45;95444.19;;;17.02;95.97
27210;BME280;14721;42.668;23.386;2023-05-25T09:09:12;95443.22;;;16.93;97.82
27210;BME280;14721;42.668;23.386;2023-05-25T09:11:38;95443.72;;;16.79;99.21
27210;BME280;14721;42.668;23.386;2023-05-25T09:14:06;95450.78;;;16.90;100.00
27210;BME280;14721;42.668;23.386;2023-05-25T09:16:32;95444.97;;;16.85;100.00
27210;BME280;14721;42.668;23.386;2023-05-25T09:18:58;95443.28;;;16.84;100.00
27210;BME280;14721;42.668;23.386;2023-05-25T09:21:24;95453.31;;;16.92;100.00
27210;BME280;14721;42.668;23.386;2023-05-25T09:23:50;95422.78;;;16.91;100.00
27210;BME280;14721;42.668;23.386;2023-05-25T09:26:16;95427.97;;;17.02;100.00
27210;BME280;14721;42.668;23.386;2023-05-25T09:28:45;95438.19;;;17.08;100.00
27210;BME280;14721;42.668;23.386;2023-05-25T09:31:11;95432.47;;;17.11;100.00
27210;BME280;14721;42.668;23.386;2023-05-25T09:33:38;95431.88;;;17.17;100.00
27210;BME280;14721;42.668;23.386;2023-05-25T09:36:05;95430.81;;;17.28;100.00
27210;BME280;14721;42.668;23.386;2023-05-25T09:38:31;95436.16;;;17.37;100.00
27210;BME280;14721;42.668;23.386;2023-05-25T09:40:57;95423.91;;;17.43;100.00
27210;BME280;14721;42.668;23.386;2023-05-25T09:43:23;95421.31;;;17.51;100.00
27210;BME280;14721;42.668;23.386;2023-05-25T09:45:51;95430.06;;;17.62;100.00
27210;BME280;14721;42.668;23.386;2023-05-25T09:48:17;95424.81;;;17.78;100.00
27210;BME280;14721;42.668;23.386;2023-05-25T09:50:43;95420.06;;;17.98;100.00
27210;BME280;14721;42.668;23.386;2023-05-25T09:53:08;95424.59;;;18.15;100.00
27210;BME280;14721;42.668;23.386;2023-05-25T09:55:35;95418.78;;;18.27;100.00
27210;BME280;14721;42.668;23.386;2023-05-25T09:58:01;95413.31;;;18.37;100.00
27210;BME280;14721;42.668;23.386;2023-05-25T10:00:27;95415.59;;;18.49;100.00
27210;BME280;14721;42.668;23.386;2023-05-25T10:02:52;95400.47;;;18.39;100.00
27210;BME280;14721;42.668;23.386;2023-05-25T10:05:18;95417.34;;;18.58;100.00
27210;BME280;14721;42.668;23.386;2023-05-25T10:07:44;95397.09;;;18.70;100.00
27210;BME280;14721;42.668;23.386;2023-05-25T10:10:13;95396.47;;;18.77;98.85
27210;BME280;14721;42.668;23.386;2023-05-25T10:12:41;95401.47;;;19.31;96.29
27210;BME280;14721;42.668;23.386;2023-05-25T10:15:12;95378.53;;;19.59;92.89
27210;BME280;14721;42.668;23.386;2023-05-25T10:17:57;95402.16;;;20.30;88.85
27210;BME280;14721;42.668;23.386;2023-05-25T10:20:25;95394.78;;;20.71;86.17
27210;BME280;14721;42.668;23.386;2023-05-25T10:23:08;95391.00;;;21.04;86.87
27210;BME280;14721;42.668;23.386;2023-05-25T10:25:42;95380.06;;;21.12;82.88
27210;BME280;14721;42.668;23.386;2023-05-25T10:28:22;95381.50;;;21.39;81.52
27210;BME280;14721;42.668;23.386;2023-05-25T10:30:51;95363.81;;;21.35;79.89
27210;BME280;14721;42.668;23.386;2023-05-25T10:33:18;95376.81;;;21.55;78.18
27210;BME280;14721;42.668;23.386;2023-05-25T10:35:45;95373.28;;;21.47;78.31
27210;BME280;14721;42.668;23.386;2023-05-25T10:38:11;95348.34;;;21.43;76.74
27210;BME280;14721;42.668;23.386;2023-05-25T10:40:40;95356.53;;;21.66;77.59
27210;BME280;14721;42.668;23.386;2023-05-25T10:43:09;95358.94;;;21.61;75.83
27210;BME280;14721;42.668;23.386;2023-05-25T10:45:35;95357.66;;;21.71;76.89
27210;BME280;14721;42.668;23.386;2023-05-25T10:48:00;95345.75;;;21.80;76.58
27210;BME280;14721;42.668;23.386;2023-05-25T10:50:26;95342.38;;;21.70;77.04
27210;BME280;14721;42.668;23.386;2023-05-25T10:53:04;95350.94;;;21.59;74.54
27210;BME280;14721;42.668;23.386;2023-05-25T10:56:01;95333.13;;;21.57;76.05
27210;BME280;14721;42.668;23.386;2023-05-25T10:58:28;95342.22;;;21.72;76.78
27210;BME280;14721;42.668;23.386;2023-05-25T11:01:07;95341.97;;;21.81;73.40
27210;BME280;14721;42.668;23.386;2023-05-25T11:04:12;95340.25;;;21.88;71.30
27210;BME280;14721;42.668;23.386;2023-05-25T11:09:05;95339.88;;;21.91;71.32
27210;BME280;14721;42.668;23.386;2023-05-25T11:14:29;95342.78;;;22.12;72.38
27210;BME280;14721;42.668;23.386;2023-05-25T11:17:08;95341.38;;;22.16;72.60
27210;BME280;14721;42.668;23.386;2023-05-25T11:22:14;95336.16;;;22.07;70.03
27210;BME280;14721;42.668;23.386;2023-05-25T11:24:45;95327.25;;;22.13;70.75
27210;BME280;14721;42.668;23.386;2023-05-25T11:27:11;95330.34;;;22.10;70.91
27210;BME280;14721;42.668;23.386;2023-05-25T11:29:37;95342.78;;;22.12;70.89
27210;BME280;14721;42.668;23.386;2023-05-25T11:32:04;95333.25;;;22.08;71.49
27210;BME280;14721;42.668;23.386;2023-05-25T11:34:35;95323.78;;;21.82;68.39
27210;BME280;14721;42.668;23.386;2023-05-25T11:37:01;95338.78;;;21.78;70.49
27210;BME280;14721;42.668;23.386;2023-05-25T11:39:27;95331.81;;;21.75;70.45
27210;BME280;14721;42.668;23.386;2023-05-25T11:41:55;95341.34;;;21.79;69.61
27210;BME280;14721;42.668;23.386;2023-05-25T11:44:25;95334.44;;;21.61;67.81
27210;BME280;14721;42.668;23.386;2023-05-25T11:46:55;95332.69;;;21.68;68.03
27210;BME280;14721;42.668;23.386;2023-05-25T11:49:26;95331.00;;;21.44;65.05
27210;BME280;14721;42.668;23.386;2023-05-25T11:51:58;95335.94;;;21.41;65.99
27210;BME280;14721;42.668;23.386;2023-05-25T11:54:28;95336.13;;;21.62;66.71
27210;BME280;14721;42.668;23.386;2023-05-25T11:56:54;95334.84;;;21.80;66.61
27210;BME280;14721;42.668;23.386;2023-05-25T11:59:30;95334.72;;;21.96;66.74
27210;BME280;14721;42.668;23.386;2023-05-25T12:02:02;95336.72;;;21.80;66.08
27210;BME280;14721;42.668;23.386;2023-05-25T12:04:29;95332.59;;;21.61;67.02
27210;BME280;14721;42.668;23.386;2023-05-25T12:07:04;95323.44;;;21.54;67.52
27210;BME280;14721;42.668;23.386;2023-05-25T12:09:30;95323.88;;;21.43;67.99
27210;BME280;14721;42.668;23.386;2023-05-25T12:11:56;95327.25;;;21.45;68.53
27210;BME280;14721;42.668;23.386;2023-05-25T12:14:22;95325.16;;;21.55;69.08
27210;BME280;14721;42.668;23.386;2023-05-25T12:16:49;95322.53;;;21.39;68.71
27210;BME280;14721;42.668;23.386;2023-05-25T12:19:15;95313.47;;;21.47;68.46
27210;BME280;14721;42.668;23.386;2023-05-25T12:21:41;95301.38;;;21.27;68.55
27210;BME280;14721;42.668;23.386;2023-05-25T12:24:08;95310.19;;;21.29;70.16
27210;BME280;14721;42.668;23.386;2023-05-25T12:26:47;95301.03;;;21.52;69.78
27210;BME280;14721;42.668;23.386;2023-05-25T12:29:13;95304.94;;;21.80;68.92
27210;BME280;14721;42.668;23.386;2023-05-25T12:31:39;95289.88;;;21.92;65.32
27210;BME280;14721;42.668;23.386;2023-05-25T12:34:11;95264.16;;;21.95;62.97
27210;BME280;14721;42.668;23.386;2023-05-25T12:39:08;95288.34;;;22.12;61.84
27210;BME280;14721;42.668;23.386;2023-05-25T12:41:48;95272.47;;;22.16;63.47
27210;BME280;14721;42.668;23.386;2023-05-25T12:44:19;95275.97;;;22.24;60.41
27210;BME280;14721;42.668;23.386;2023-05-25T12:46:46;95268.47;;;22.41;62.45
27210;BME280;14721;42.668;23.386;2023-05-25T12:49:33;95273.28;;;22.54;60.02
27210;BME280;14721;42.668;23.386;2023-05-25T12:52:01;95247.22;;;22.59;59.45
27210;BME280;14721;42.668;23.386;2023-05-25T12:54:41;95268.59;;;22.77;57.20
27210;BME280;14721;42.668;23.386;2023-05-25T12:57:10;95257.72;;;22.62;56.05
27210;BME280;14721;42.668;23.386;2023-05-25T12:59:36;95247.03;;;22.61;56.73
27210;BME280;14721;42.668;23.386;2023-05-25T13:02:04;95250.75;;;22.74;56.65
27210;BME280;14721;42.668;23.386;2023-05-25T13:04:30;95242.03;;;22.79;56.38